Chapman Ranch, Texas
Current Conditions -  °F | °C
As of 3:56 AM on Thursday 23 Oct 2014 (Local Time) from KNGP Reporting Station
Clear Clear  
Wind Chill: 73°   Ceiling: Unl
Heat Index: 73°   Visibility: 10mi
Dew Point: 66°   Wind: 7mph
Humidity: 79%   Direction: 60°ENE
Pressure: 30.03"   Gusts: NA
Location:  27.59°N, 97.45°W
Report Text: KNGP 230856Z AUTO 06006KT 10SM CLR 23/19 A3003 RMK AO2 SLP167 T02280189 56004
Loading
Personal Weather Stations






























Interactive Weather Map
Tropical Storm Tracking
New forecast layout! Learn more

10-Day Weather Forecast

Advertisements
Track Severe Weather on mobile